Cap Leon — SVGP — position and weather

sailwx.info

Track history (hours):
 
Tides and Currents Weather Stations Pressure Air Temp Water Temp Dewpoint Dewpoint Depression Visibility Wind Speed Wind Dir Waves Ship Positions

Cap Leon

Last reported at 2018-Feb-22 01:48 UTC. Time now 2018-Feb-23 06:57 UTC.
Position N 25°44' W 079°27'.

Length 274 m; draft 15 m.

Type: Tanker. MMSI: 240124000.

Date/timePositionNaut miles runAvg speedWind from/ knotsBaromVisibWave heightAir tempDewpointWater temp
2018-Feb-22 01:48N 25°44' W 079°27'86620.9
2018-Feb-20 08:22N 29°44' W 095°07'24410.0
2018-Feb-19 07:57N 26°09' W 092°57'10212.1
2018-Feb-18 23:29N 27°26' W 094°12'6611.6
2018-Feb-18 17:50N 28°31' W 094°26'6 8.6
2018-Feb-18 17:05N 28°37' W 094°24'2 6.7
2018-Feb-18 16:48N 28°38' W 094°25'3 8.5
2018-Feb-18 16:30N 28°41' W 094°25'12 9.5
2018-Feb-18 15:13N 28°44' W 094°11'2 7.2
2018-Feb-18 15:00N 28°44' W 094°10'1 1.3
2018-Feb-18 14:30N 28°45' W 094°09'0 0.8
2018-Feb-18 14:00N 28°45' W 094°09'1 0.6
2018-Feb-18 12:23N 28°46' W 094°09'0 0.8
2018-Feb-18 12:00N 28°46' W 094°09'0 0.9
2018-Feb-18 11:30N 28°47' W 094°09'0 0.0
2018-Feb-18 10:57N 28°47' W 094°09'0 0.0
2018-Feb-18 10:21N 28°47' W 094°09'0 0.0
2018-Feb-18 10:00N 28°47' W 094°09'0 0.0
2018-Feb-18 09:27N 28°47' W 094°09'0 0.0
2018-Feb-18 09:00N 28°47' W 094°09'0 0.0
2018-Feb-18 08:30N 28°47' W 094°09'0 0.0
2018-Feb-18 08:00N 28°47' W 094°09'0 0.0
2018-Feb-18 07:24N 28°47' W 094°09'0 0.0
2018-Feb-18 06:57N 28°47' W 094°09'0 0.0
2018-Feb-18 06:27N 28°47' W 094°09'0 0.0
2018-Feb-18 03:57N 28°47' W 094°09'0 0.0
2018-Feb-18 03:30N 28°47' W 094°09'0 0.0
2018-Feb-18 01:51N 28°47' W 094°09'0 0.1
2018-Feb-18 01:21N 28°47' W 094°09'0 0.0
2018-Feb-18 00:51N 28°47' W 094°09'0 0.0
2018-Feb-18 00:18N 28°47' W 094°09'0 0.0
2018-Feb-18 00:00N 28°47' W 094°09'0 0.0
2018-Feb-17 22:12N 28°47' W 094°09'0 0.0
2018-Feb-17 21:57N 28°47' W 094°09'9 1.1
2018-Feb-17 13:21N 28°41' W 094°17'0 0.0
2018-Feb-17 12:54N 28°41' W 094°17'0 0.0
2018-Feb-17 09:48N 28°41' W 094°17'0 0.0
2018-Feb-17 09:27N 28°41' W 094°17'0 0.1
2018-Feb-17 07:19N 28°41' W 094°17'1 2.4
2018-Feb-17 07:00N 28°41' W 094°18'0 0.5
2018-Feb-17 06:30N 28°41' W 094°18'0 0.6
2018-Feb-17 06:00N 28°41' W 094°18'0 0.5
2018-Feb-17 05:30N 28°41' W 094°18'1 1.0
2018-Feb-17 04:57N 28°41' W 094°17'3 5.2
2018-Feb-17 04:22N 28°44' W 094°17'3 6.8
2018-Feb-17 03:58N 28°46' W 094°18'4 6.9
2018-Feb-17 03:23N 28°50' W 094°20'3 6.9
2018-Feb-17 02:59N 28°53' W 094°21'4 8.9
2018-Feb-17 02:30N 28°56' W 094°24'711.9
2018-Feb-17 01:54N 29°03' W 094°26'5 9.7
2018-Feb-17 01:24N 29°08' W 094°27'510.0
2018-Feb-17 00:55N 29°11' W 094°31'6 9.8
2018-Feb-17 00:21N 29°15' W 094°35'410.2
2018-Feb-17 00:00N 29°18' W 094°37'510.8
2018-Feb-16 23:30N 29°21' W 094°43'4 9.0
2018-Feb-16 23:00N 29°22' W 094°48'4 8.6
2018-Feb-16 22:30N 29°26' W 094°50'4 8.5
2018-Feb-16 22:00N 29°29' W 094°52'5 9.3
2018-Feb-16 21:30N 29°33' W 094°55'4 8.9
2018-Feb-16 21:00N 29°37' W 094°57'4 8.7
2018-Feb-16 20:30N 29°41' W 094°59'3 6.9
2018-Feb-16 20:00N 29°44' W 095°02'3 6.6
2018-Feb-16 19:30N 29°46' W 095°05'2 4.7
2018-Feb-16 19:00N 29°44' W 095°07'0 0.8
2018-Feb-16 18:30N 29°44' W 095°07'  
2018-Feb-12 22:04N 29°44' W 095°07'0 1.3
2018-Feb-12 21:59N 29°44' W 095°07'2 4.4
2018-Feb-12 21:30N 29°46' W 095°05'3 6.2
2018-Feb-12 20:59N 29°44' W 095°02'3 6.9
2018-Feb-12 20:31N 29°42' W 094°60'510.4
2018-Feb-12 20:01N 29°37' W 094°57'510.8
2018-Feb-12 19:31N 29°32' W 094°54'612.1
2018-Feb-12 19:00N 29°27' W 094°51'2110.9
2018-Feb-12 17:02N 29°14' W 094°31'0 6.8
2018-Feb-12 16:59N 29°14' W 094°31'  
Track history (hours):
 
Tides and Currents Weather Stations Pressure Air Temp Water Temp Dewpoint Dewpoint Depression Visibility Wind Speed Wind Dir Waves Ship Positions

Cap Leon

Last reported at 2018-Feb-22 01:48 UTC. Time now 2018-Feb-23 06:57 UTC.
Position N 25°44' W 079°27'.

Length 274 m; draft 15 m.

Type: Tanker. MMSI: 240124000.

Date/timePositionNaut miles runAvg speedWind from/ knotsBaromVisibWave heightAir tempDewpointWater temp
2018-Feb-22 01:48N 25°44' W 079°27'86620.9
2018-Feb-20 08:22N 29°44' W 095°07'24410.0
2018-Feb-19 07:57N 26°09' W 092°57'10212.1
2018-Feb-18 23:29N 27°26' W 094°12'6611.6
2018-Feb-18 17:50N 28°31' W 094°26'6 8.6
2018-Feb-18 17:05N 28°37' W 094°24'2 6.7
2018-Feb-18 16:48N 28°38' W 094°25'3 8.5
2018-Feb-18 16:30N 28°41' W 094°25'12 9.5
2018-Feb-18 15:13N 28°44' W 094°11'2 7.2
2018-Feb-18 15:00N 28°44' W 094°10'1 1.3
2018-Feb-18 14:30N 28°45' W 094°09'0 0.8
2018-Feb-18 14:00N 28°45' W 094°09'1 0.6
2018-Feb-18 12:23N 28°46' W 094°09'0 0.8
2018-Feb-18 12:00N 28°46' W 094°09'0 0.9
2018-Feb-18 11:30N 28°47' W 094°09'0 0.0
2018-Feb-18 10:57N 28°47' W 094°09'0 0.0
2018-Feb-18 10:21N 28°47' W 094°09'0 0.0
2018-Feb-18 10:00N 28°47' W 094°09'0 0.0
2018-Feb-18 09:27N 28°47' W 094°09'0 0.0
2018-Feb-18 09:00N 28°47' W 094°09'0 0.0
2018-Feb-18 08:30N 28°47' W 094°09'0 0.0
2018-Feb-18 08:00N 28°47' W 094°09'0 0.0
2018-Feb-18 07:24N 28°47' W 094°09'0 0.0
2018-Feb-18 06:57N 28°47' W 094°09'0 0.0
2018-Feb-18 06:27N 28°47' W 094°09'0 0.0
2018-Feb-18 03:57N 28°47' W 094°09'0 0.0
2018-Feb-18 03:30N 28°47' W 094°09'0 0.0
2018-Feb-18 01:51N 28°47' W 094°09'0 0.1
2018-Feb-18 01:21N 28°47' W 094°09'0 0.0
2018-Feb-18 00:51N 28°47' W 094°09'0 0.0
2018-Feb-18 00:18N 28°47' W 094°09'0 0.0
2018-Feb-18 00:00N 28°47' W 094°09'0 0.0
2018-Feb-17 22:12N 28°47' W 094°09'0 0.0
2018-Feb-17 21:57N 28°47' W 094°09'9 1.1
2018-Feb-17 13:21N 28°41' W 094°17'0 0.0
2018-Feb-17 12:54N 28°41' W 094°17'0 0.0
2018-Feb-17 09:48N 28°41' W 094°17'0 0.0
2018-Feb-17 09:27N 28°41' W 094°17'0 0.1
2018-Feb-17 07:19N 28°41' W 094°17'1 2.4
2018-Feb-17 07:00N 28°41' W 094°18'0 0.5
2018-Feb-17 06:30N 28°41' W 094°18'0 0.6
2018-Feb-17 06:00N 28°41' W 094°18'0 0.5
2018-Feb-17 05:30N 28°41' W 094°18'1 1.0
2018-Feb-17 04:57N 28°41' W 094°17'3 5.2
2018-Feb-17 04:22N 28°44' W 094°17'3 6.8
2018-Feb-17 03:58N 28°46' W 094°18'4 6.9
2018-Feb-17 03:23N 28°50' W 094°20'3 6.9
2018-Feb-17 02:59N 28°53' W 094°21'4 8.9
2018-Feb-17 02:30N 28°56' W 094°24'711.9
2018-Feb-17 01:54N 29°03' W 094°26'5 9.7
2018-Feb-17 01:24N 29°08' W 094°27'510.0
2018-Feb-17 00:55N 29°11' W 094°31'6 9.8
2018-Feb-17 00:21N 29°15' W 094°35'410.2
2018-Feb-17 00:00N 29°18' W 094°37'510.8
2018-Feb-16 23:30N 29°21' W 094°43'4 9.0
2018-Feb-16 23:00N 29°22' W 094°48'4 8.6
2018-Feb-16 22:30N 29°26' W 094°50'4 8.5
2018-Feb-16 22:00N 29°29' W 094°52'5 9.3
2018-Feb-16 21:30N 29°33' W 094°55'4 8.9
2018-Feb-16 21:00N 29°37' W 094°57'4 8.7
2018-Feb-16 20:30N 29°41' W 094°59'3 6.9
2018-Feb-16 20:00N 29°44' W 095°02'3 6.6
2018-Feb-16 19:30N 29°46' W 095°05'2 4.7
2018-Feb-16 19:00N 29°44' W 095°07'0 0.8
2018-Feb-16 18:30N 29°44' W 095°07'  
2018-Feb-12 22:04N 29°44' W 095°07'0 1.3
2018-Feb-12 21:59N 29°44' W 095°07'2 4.4
2018-Feb-12 21:30N 29°46' W 095°05'3 6.2
2018-Feb-12 20:59N 29°44' W 095°02'3 6.9
2018-Feb-12 20:31N 29°42' W 094°60'510.4
2018-Feb-12 20:01N 29°37' W 094°57'510.8
2018-Feb-12 19:31N 29°32' W 094°54'612.1
2018-Feb-12 19:00N 29°27' W 094°51'2110.9
2018-Feb-12 17:02N 29°14' W 094°31'0 6.8
2018-Feb-12 16:59N 29°14' W 094°31'  

Dump ship's entire track history